Terminal Aerodrome Forecast
Issued by NWS

Home | Current Version | Previous Version | Text Only | Print | Product List | Glossary On
Versions: 1 2 3 4 5 6 7 8 9 10 11 12 13 14 15
035
FTUS44 KTSA 282336
TAFBVO
TAF
KBVO 282336Z 2900/2924 00000KT P6SM SCT040 BKN250
     FM290900 00000KT 5SM BR SCT030 BKN250 PROB30 2909/2915 3SM TSRA
      BKN030CB
     FM291500 05004KT P6SM SCT040 BKN250 PROB30 2915/2918 3SM TSRA
      BKN030CB
     FM291800 16005KT P6SM SCT050 BKN250=

USA.gov is the U.S. government's official web portal to all federal, state and local government web resources and services.